Hlavní strana
METAR-TAF:

METAR-TAF

Letiště :

Tomsk, Rusko

zeměpisná šířka: 56-23-12N, zeměpisná délka: 085-12-38E, výška: 182 m

Aktuální stav počasí

Zpráva byla vytvořena před 27 minutami, v 08:00 UTC
Západojihozápadní vítr 14 kt
Teplota -6°C
Vlhkost vzduchu 93%
Tlak 1015 hPa
Viditelnost 10 km a více
Zataženo ve výšce 800 ft

METAR: UNTT 110800Z 24007MPS 9999 OVC008 M06/M07 Q1015 R21/590234 NOSIG RMK QFE746

Čas: 15:27 (08:27 UTC)

Předpověď počasí

Zpráva byla vytvořena před 51 minutami, v 07:36 UTC
Předpověď platná od 11 v 07 UTC do 11 v 15 UTC
Jihozápadní vítr 12 kt s nárazy do 27 kt
Viditelnost 10 km a více
Zataženo ve výšce 700 ft
slabé sněžení
Dočasný
od 11 v 07 UTC do 11 v 15 UTC
Viditelnost: 2200 m
Oblačno až skoro zataženo ve výšce 1000 ft
Oblačno až skoro zataženo ve výšce 2000 ft, Cumulonimbus.
slabé sněhové přeháňky

TAF: UNTT 110736Z 1107/1115 23006G14MPS 9999 -SN OVC007 TEMPO 1107/1115 2200 -SHSN BKN010 BKN020CB

Stav a předpovědi počasí z více než 4 000 letišť (zprávy METAR a TAF).

Červené a žluté tečky na mapě představují dostupné meteorologické stanice.

Když kurzor umístíte na tečku, zobrazí se název stanice.

Pak kliknutím zobrazíte stav a předpověď počasí.

Chcete-li změnit mapu, kliknutím na zelené tlačítko se znaménkem +mapu přiblížíte, kliknutím na zelené tlačítko se znaménkem – mapu oddálíte a kliknutím na zelené šipky přejdete na sousední mapy.


METAR-TAF: